Terminal Aerodrome Forecast
Issued by NWS

Current Version | Previous Version | Text Only | Print | Product List | Glossary On
Versions: 1 2 3 4 5 6 7 8 9 10 11 12 13 14 15 16 17
189
FTUS46 KMTR 240539
TAFOAK
TAF
KOAK 240539Z 2406/2512 31007KT P6SM OVC006
     FM241600 29006KT P6SM SCT007 BKN011
     FM241800 29007KT P6SM FEW011 SCT150
     FM242000 30013KT P6SM FEW012 BKN150
     FM250400 29009KT P6SM BKN011
     FM250800 29008KT P6SM OVC009=

USA.gov is the U.S. government's official web portal to all federal, state and local government web resources and services.